Time;durP1;ratioP1;P1;durP2;ratioP2;P2;SDS_P1;SDS_P2;PMS_P1;PMS_P2;Temp;Humidity;BMP_temperature;BMP_pressure;BME280_temperature;BME280_humidity;BME280_pressure;Samples;Min_cycle;Max_cycle;Signal;HPM_P1;HPM_P2
2022/03/29 00:01:31;;;;;;;8.50;4.90;;;;;;;7.21;37.00;98095.77;104476;1277;61111;-27
2022/03/29 00:04:00;;;;;;;13.90;7.00;;;;;;;7.17;37.04;98094.17;104592;1278;61053;-27
2022/03/29 00:06:30;;;;;;;11.20;7.10;;;;;;;7.12;37.26;98091.42;104612;1277;73763;-27
2022/03/29 00:09:19;;;;;;;9.70;6.20;;;;;;;7.07;37.28;98090.47;104560;1278;75934;-27
2022/03/29 00:11:48;;;;;;;12.70;6.40;;;;;;;7.02;37.58;98089.39;104427;1278;74437;-27
2022/03/29 00:14:17;;;;;;;13.80;7.00;;;;;;;6.98;37.66;98087.55;104249;1280;61932;-27
2022/03/29 00:17:37;;;;;;;12.90;6.20;;;;;;;6.98;37.70;98082.79;104618;1277;62095;-28
2022/03/29 00:20:08;;;;;;;12.50;6.30;;;;;;;6.99;37.68;98076.64;104726;1277;73833;-27
2022/03/29 00:22:38;;;;;;;14.10;6.50;;;;;;;6.98;37.81;98079.98;104546;1278;75240;-27
2022/03/29 00:25:08;;;;;;;13.40;7.20;;;;;;;6.95;37.97;98076.29;104457;1278;74467;-27
2022/03/29 00:27:37;;;;;;;13.70;7.00;;;;;;;6.90;38.32;98078.21;105001;1271;61149;-27
2022/03/29 00:30:11;;;;;;;14.10;7.20;;;;;;;6.87;38.46;98076.27;105120;1271;61095;-27
2022/03/29 00:32:40;;;;;;;11.80;6.50;;;;;;;6.86;38.48;98073.17;105078;1271;74609;-27
2022/03/29 00:35:09;;;;;;;14.00;7.60;;;;;;;6.89;38.57;98071.63;104778;1272;76065;-27
2022/03/29 00:37:39;;;;;;;13.60;6.90;;;;;;;6.89;38.61;98071.74;104979;1271;74499;-27
2022/03/29 00:40:10;;;;;;;15.10;6.60;;;;;;;6.94;38.61;98062.34;105096;1271;61154;-27
2022/03/29 00:42:40;;;;;;;13.90;7.50;;;;;;;7.00;38.53;98053.60;105132;1271;61163;-27
2022/03/29 00:45:10;;;;;;;10.90;6.80;;;;;;;7.04;38.53;98055.42;105018;1271;74711;-27
2022/03/29 00:47:40;;;;;;;10.90;6.20;;;;;;;7.05;38.59;98052.16;104992;1271;74862;-27
2022/03/29 00:50:10;;;;;;;11.30;6.20;;;;;;;7.06;38.85;98056.92;104824;1271;73316;-27
2022/03/29 00:52:39;;;;;;;13.60;7.60;;;;;;;7.07;38.79;98052.02;104775;1271;61058;-27
2022/03/29 00:55:12;;;;;;;16.30;7.30;;;;;;;7.07;39.03;98050.85;104874;1271;60982;-27
2022/03/29 00:57:41;;;;;;;14.60;7.70;;;;;;;7.06;39.08;98044.52;105026;1272;74643;-27
2022/03/29 01:00:11;;;;;;;12.70;6.10;;;;;;;7.06;39.37;98039.16;105189;1271;75978;-27
2022/03/29 01:03:02;;;;;;;13.60;7.50;;;;;;;7.06;39.44;98033.80;105081;1271;74473;-27
2022/03/29 01:05:31;;;;;;;11.40;7.10;;;;;;;7.07;39.44;98035.27;105095;1271;61111;-27
2022/03/29 01:08:01;;;;;;;12.40;6.70;;;;;;;7.12;39.50;98028.15;105110;1273;62087;-27
2022/03/29 01:10:34;;;;;;;12.70;6.60;;;;;;;7.14;39.70;98029.49;105106;1271;74425;-27
2022/03/29 01:13:04;;;;;;;14.70;7.10;;;;;;;7.16;39.58;98027.13;104837;1271;74757;-27
2022/03/29 01:15:39;;;;;;;11.80;5.30;;;;;;;7.13;39.75;98025.22;104857;1271;74425;-27
2022/03/29 01:18:09;;;;;;;12.60;7.30;;;;;;;7.11;40.06;98022.70;105091;1271;61131;-27
2022/03/29 01:20:53;;;;;;;13.50;6.70;;;;;;;7.14;40.06;98023.45;105073;1271;62573;-27
2022/03/29 01:23:22;;;;;;;10.50;6.30;;;;;;;7.16;40.12;98020.70;104938;1271;74802;-27
2022/03/29 01:25:51;;;;;;;9.70;5.90;;;;;;;7.17;40.27;98020.66;105166;1270;76000;-27
2022/03/29 01:28:20;;;;;;;13.60;6.90;;;;;;;7.16;40.28;98013.44;104980;1271;74449;-27
2022/03/29 01:30:53;;;;;;;12.00;5.80;;;;;;;7.18;40.25;98014.66;105113;1271;61126;-27
2022/03/29 01:33:23;;;;;;;11.10;5.70;;;;;;;7.19;40.43;98007.48;105010;1271;61846;-27
2022/03/29 01:35:52;;;;;;;11.80;5.90;;;;;;;7.20;40.67;98005.52;104762;1271;73748;-27
2022/03/29 01:38:21;;;;;;;10.40;5.60;;;;;;;7.21;40.74;97996.61;104863;1271;76341;-26
2022/03/29 01:40:50;;;;;;;13.50;7.40;;;;;;;7.23;40.88;97996.81;105003;1271;73347;-26
2022/03/29 01:43:20;;;;;;;13.40;6.00;;;;;;;7.23;41.05;97994.91;104909;1270;61089;-26
2022/03/29 01:45:49;;;;;;;12.60;5.90;;;;;;;7.23;41.20;97992.21;104746;1271;61785;-26
2022/03/29 01:48:18;;;;;;;12.60;7.20;;;;;;;7.24;41.21;97992.63;104894;1271;74093;-26
2022/03/29 01:50:49;;;;;;;15.10;7.20;;;;;;;7.25;41.44;97994.42;104982;1271;75985;-27
2022/03/29 01:53:23;;;;;;;11.10;6.10;;;;;;;7.21;41.45;97996.77;105056;1270;74575;-26
2022/03/29 01:55:59;;;;;;;15.20;6.60;;;;;;;7.22;41.52;98002.64;105023;1274;61362;-27
2022/03/29 01:58:31;;;;;;;14.60;7.80;;;;;;;7.20;41.74;97992.79;104985;1271;62363;-27
2022/03/29 02:01:01;;;;;;;15.20;7.40;;;;;;;7.18;41.88;97993.48;105083;1270;74789;-25
2022/03/29 02:03:31;;;;;;;12.90;6.20;;;;;;;7.15;42.14;97993.71;105053;1271;76435;-29
2022/03/29 02:06:01;;;;;;;9.80;6.30;;;;;;;7.10;42.34;97990.47;104985;1271;75166;-29
2022/03/29 02:08:31;;;;;;;10.60;6.20;;;;;;;7.04;42.59;97988.20;104951;1271;61016;-28
2022/03/29 02:11:09;;;;;;;8.00;4.80;;;;;;;7.02;42.86;97981.86;104787;1271;61134;-26
2022/03/29 02:13:38;;;;;;;12.70;6.80;;;;;;;7.04;43.12;97981.33;104969;1270;74553;-26
2022/03/29 02:16:09;;;;;;;10.40;6.20;;;;;;;7.02;43.33;97981.00;105098;1270;75211;-29
2022/03/29 02:18:38;;;;;;;15.60;7.40;;;;;;;6.98;43.63;97976.98;104992;1270;73093;-29
2022/03/29 02:21:07;;;;;;;11.80;6.20;;;;;;;6.97;43.55;97976.23;104958;1271;61110;-29
2022/03/29 02:23:36;;;;;;;13.10;6.50;;;;;;;6.95;43.54;97975.81;105002;1270;61989;-27
2022/03/29 02:26:06;;;;;;;13.50;6.30;;;;;;;6.93;43.56;97978.41;105165;1270;74770;-28
2022/03/29 02:28:35;;;;;;;12.90;5.70;;;;;;;6.90;43.68;97975.08;105164;1270;76072;-28
2022/03/29 02:31:04;;;;;;;13.10;8.20;;;;;;;6.86;43.82;97972.27;105104;1271;74401;-27
2022/03/29 02:33:35;;;;;;;12.20;6.30;;;;;;;6.83;43.85;97973.73;105070;1270;61306;-27
2022/03/29 02:36:04;;;;;;;15.70;5.80;;;;;;;6.79;44.31;97969.94;104967;1270;61151;-27
2022/03/29 02:38:35;;;;;;;11.20;6.10;;;;;;;6.77;44.41;97964.92;105137;1270;74651;-27
2022/03/29 02:41:04;;;;;;;12.60;6.80;;;;;;;6.77;44.64;97963.54;105133;1270;75937;-27
2022/03/29 02:43:36;;;;;;;10.30;6.40;;;;;;;6.78;44.59;97964.52;105079;1271;75873;-27
2022/03/29 02:46:05;;;;;;;12.70;7.10;;;;;;;6.77;44.75;97963.59;104940;1270;61074;-27
2022/03/29 02:48:35;;;;;;;11.70;6.80;;;;;;;6.71;45.06;97961.61;105089;1271;62326;-27
2022/03/29 02:51:04;;;;;;;11.90;6.00;;;;;;;6.69;45.05;97963.31;104845;1270;74714;-27
2022/03/29 02:53:35;;;;;;;10.10;6.40;;;;;;;6.67;44.96;97957.96;105127;1271;75955;-27
2022/03/29 02:56:04;;;;;;;12.50;6.80;;;;;;;6.67;45.19;97956.61;105053;1270;74247;-27
2022/03/29 02:58:34;;;;;;;16.00;7.10;;;;;;;6.65;45.36;97956.89;105069;1271;61141;-27
2022/03/29 03:01:04;;;;;;;13.60;7.10;;;;;;;6.62;45.77;97951.63;105155;1271;61685;-27
2022/03/29 03:03:38;;;;;;;12.00;7.10;;;;;;;6.61;45.92;97952.05;105112;1271;73638;-27
2022/03/29 03:06:14;;;;;;;13.20;6.30;;;;;;;6.64;45.90;97949.97;104786;1271;73385;-27
2022/03/29 03:08:45;;;;;;;8.60;5.50;;;;;;;6.66;46.00;97954.04;105138;1271;73354;-27
2022/03/29 03:11:15;;;;;;;13.70;7.20;;;;;;;6.71;45.88;97956.11;105025;1271;61472;-27
2022/03/29 03:13:46;;;;;;;16.20;6.50;;;;;;;6.70;46.13;97958.55;105127;1271;61828;-27
2022/03/29 03:16:16;;;;;;;10.60;6.20;;;;;;;6.68;46.34;97956.85;105128;1271;75522;-27
2022/03/29 03:18:45;;;;;;;12.80;7.10;;;;;;;6.65;46.52;97952.23;104968;1271;74883;-27
2022/03/29 03:21:15;;;;;;;15.70;6.60;;;;;;;6.62;46.57;97947.64;104895;1271;74471;-27
2022/03/29 03:23:59;;;;;;;;;;;;;;;6.62;46.68;97951.68;104808;1270;62667;-27
2022/03/29 03:26:29;;;;;;;8.90;4.70;;;;;;;6.57;46.99;97946.89;104804;1271;61636;-28
2022/03/29 03:29:02;;;;;;;11.50;6.90;;;;;;;6.54;47.31;97950.25;104978;1271;74001;-27
2022/03/29 03:31:32;;;;;;;14.80;6.00;;;;;;;6.50;47.34;97951.09;105149;1271;75111;-27
2022/03/29 03:34:01;;;;;;;10.90;6.50;;;;;;;6.44;47.51;97957.98;105067;1271;73373;-27
2022/03/29 03:36:31;;;;;;;13.00;6.80;;;;;;;6.39;47.96;97955.95;104844;1271;61148;-27
2022/03/29 03:39:00;;;;;;;11.60;6.20;;;;;;;6.38;47.72;97954.96;104854;1271;62072;-28
2022/03/29 03:41:32;;;;;;;10.00;5.90;;;;;;;6.35;47.67;97953.68;104900;1271;74487;-27
2022/03/29 03:44:01;;;;;;;9.80;6.00;;;;;;;6.31;48.18;97953.98;105192;1271;76088;-27
2022/03/29 03:46:31;;;;;;;11.30;6.20;;;;;;;6.30;48.19;97953.42;105190;1270;74371;-27
2022/03/29 03:49:01;;;;;;;14.70;7.00;;;;;;;6.25;48.50;97957.04;105184;1270;61141;-27
2022/03/29 03:51:30;;;;;;;13.20;6.10;;;;;;;6.20;48.71;97956.75;105194;1271;61129;-27
2022/03/29 03:53:59;;;;;;;11.20;6.20;;;;;;;6.15;49.25;97954.41;105080;1270;75355;-27
2022/03/29 03:56:28;;;;;;;16.10;6.00;;;;;;;6.16;49.21;97956.63;104924;1271;74984;-27
2022/03/29 03:58:58;;;;;;;10.60;7.80;;;;;;;6.15;49.48;97956.02;104984;1270;74450;-27
2022/03/29 04:01:27;;;;;;;13.90;7.00;;;;;;;6.17;49.50;97954.28;105082;1270;61327;-27
2022/03/29 04:03:57;;;;;;;11.90;6.40;;;;;;;6.19;49.64;97958.06;105074;1270;61234;-27
2022/03/29 04:06:26;;;;;;;14.00;6.50;;;;;;;6.18;49.56;97956.91;105133;1270;75610;-27
2022/03/29 04:08:55;;;;;;;9.40;6.00;;;;;;;6.16;49.69;97959.38;105173;1271;75936;-27
2022/03/29 04:11:26;;;;;;;11.10;6.30;;;;;;;6.11;49.81;97956.10;105148;1270;73469;-27
2022/03/29 04:13:56;;;;;;;9.60;5.50;;;;;;;6.07;49.83;97958.10;105163;1270;61099;-27
2022/03/29 04:16:26;;;;;;;11.70;6.00;;;;;;;6.08;49.70;97959.41;104957;1271;61140;-27
2022/03/29 04:18:56;;;;;;;9.60;5.80;;;;;;;6.09;49.96;97957.14;105105;1270;75535;-26
2022/03/29 04:21:26;;;;;;;9.70;5.50;;;;;;;6.10;49.78;97963.78;105133;1271;75989;-26
2022/03/29 04:24:01;;;;;;;11.70;5.80;;;;;;;6.13;49.70;97962.39;105153;1271;75831;-27
2022/03/29 04:26:31;;;;;;;11.80;6.00;;;;;;;6.16;49.51;97960.19;105039;1270;61143;-26
2022/03/29 04:29:00;;;;;;;13.10;6.20;;;;;;;6.22;49.61;97957.80;104812;1270;61099;-27
2022/03/29 04:31:32;;;;;;;11.20;6.50;;;;;;;6.31;49.56;97960.19;104842;1270;74831;-26
2022/03/29 04:34:01;;;;;;;10.20;6.20;;;;;;;6.41;49.64;97960.45;104969;1271;76027;-26
2022/03/29 04:36:31;;;;;;;13.90;7.10;;;;;;;6.52;49.48;97959.05;105067;1271;74664;-26
2022/03/29 04:39:00;;;;;;;14.10;6.30;;;;;;;6.63;49.28;97952.80;105127;1271;61154;-26
2022/03/29 04:41:30;;;;;;;9.00;5.40;;;;;;;6.75;49.69;97958.73;104983;1270;61006;-26
2022/03/29 04:43:59;;;;;;;11.70;6.90;;;;;;;6.85;49.57;97957.34;105013;1270;75573;-26
2022/03/29 04:46:28;;;;;;;13.00;6.60;;;;;;;6.99;49.34;97956.67;104727;1271;75950;-26
2022/03/29 04:48:57;;;;;;;10.90;6.10;;;;;;;7.17;49.14;97956.09;105101;1270;74774;-26
2022/03/29 04:51:33;;;;;;;12.70;6.30;;;;;;;7.34;48.89;97957.41;105109;1270;61257;-26
2022/03/29 04:54:03;;;;;;;15.80;6.60;;;;;;;7.53;48.53;97955.09;104957;1270;61064;-26
2022/03/29 04:56:33;;;;;;;17.50;7.90;;;;;;;7.73;48.32;97954.77;105182;1270;75704;-26
2022/03/29 04:59:02;;;;;;;15.60;7.80;;;;;;;7.89;47.84;97955.08;105144;1270;75989;-26
2022/03/29 05:01:32;;;;;;;16.00;8.80;;;;;;;8.02;47.67;97952.60;105087;1271;74375;-26
2022/03/29 05:04:01;;;;;;;18.10;7.30;;;;;;;8.11;47.68;97956.13;105123;1270;61371;-26
2022/03/29 05:06:31;;;;;;;13.40;7.50;;;;;;;8.19;47.30;97955.43;104961;1270;61135;-26
2022/03/29 05:09:00;;;;;;;11.20;6.30;;;;;;;8.22;47.14;97955.90;104626;1271;75582;-27
2022/03/29 05:11:30;;;;;;;15.10;7.50;;;;;;;8.21;47.26;97954.04;104898;1270;76054;-26
2022/03/29 05:14:00;;;;;;;13.10;7.00;;;;;;;8.25;47.09;97955.06;104883;1270;74358;-27
2022/03/29 05:16:29;;;;;;;11.50;6.70;;;;;;;8.29;47.04;97951.09;105116;1270;61071;-26
2022/03/29 05:18:59;;;;;;;13.30;7.10;;;;;;;8.33;47.16;97954.73;105127;1271;61822;-26
2022/03/29 05:21:30;;;;;;;13.30;6.80;;;;;;;8.35;47.18;97952.09;105124;1270;75525;-27
2022/03/29 05:23:59;;;;;;;11.20;5.80;;;;;;;8.36;47.09;97953.23;104945;1270;74198;-27
2022/03/29 05:26:28;;;;;;;11.80;6.70;;;;;;;8.38;47.20;97951.52;105019;1270;74190;-26
2022/03/29 05:28:58;;;;;;;13.80;7.20;;;;;;;8.41;47.31;97949.65;105121;1270;61121;-27
2022/03/29 05:31:26;;;;;;;11.20;5.90;;;;;;;8.44;47.40;97947.83;104945;1270;62134;-28
2022/03/29 05:33:56;;;;;;;11.20;6.40;;;;;;;8.51;47.41;97941.39;105093;1271;76011;-27
2022/03/29 05:36:25;;;;;;;13.50;7.00;;;;;;;8.61;47.80;97934.72;105162;1270;76332;-28
2022/03/29 05:38:55;;;;;;;13.70;6.30;;;;;;;8.80;47.20;97933.62;105122;1270;72315;-26
2022/03/29 05:41:24;;;;;;;14.20;7.40;;;;;;;8.97;47.04;97922.63;105166;1270;61358;-26
2022/03/29 05:43:53;;;;;;;13.90;7.30;;;;;;;9.14;47.06;97920.79;105174;1270;61745;-27
2022/03/29 05:49:10;;;;;;;12.60;6.40;;;;;;;9.46;46.29;97926.05;105062;1271;75852;-26
2022/03/29 05:51:40;;;;;;;12.40;6.30;;;;;;;9.58;46.25;97932.27;105129;1270;74396;-26
2022/03/29 05:54:09;;;;;;;13.60;6.80;;;;;;;9.68;46.07;97933.89;105034;1271;61169;-27
2022/03/29 05:56:39;;;;;;;17.10;7.20;;;;;;;9.76;45.70;97936.78;104886;1270;61836;-26
2022/03/29 05:59:08;;;;;;;18.10;7.20;;;;;;;9.83;45.67;97937.13;105160;1271;75851;-27
2022/03/29 06:01:38;;;;;;;12.60;6.30;;;;;;;9.90;45.65;97938.89;105185;1270;75933;-26
2022/03/29 06:04:08;;;;;;;10.40;6.20;;;;;;;9.97;45.28;97933.88;104679;1270;74193;-26
2022/03/29 06:06:39;;;;;;;12.10;7.30;;;;;;;10.02;45.18;97930.31;104823;1270;61393;-26
2022/03/29 06:09:08;;;;;;;12.20;7.00;;;;;;;10.07;45.02;97926.88;104821;1271;61112;-26
2022/03/29 06:11:38;;;;;;;11.40;6.70;;;;;;;10.13;45.18;97924.70;104962;1270;75444;-26
2022/03/29 06:14:07;;;;;;;10.60;6.80;;;;;;;10.19;44.87;97916.66;104888;1270;75942;-27
2022/03/29 06:16:37;;;;;;;15.00;7.20;;;;;;;10.18;44.71;97916.81;105154;1270;72253;-26
2022/03/29 06:19:09;;;;;;;14.20;7.10;;;;;;;10.19;44.92;97917.38;105130;1270;61134;-26
2022/03/29 06:21:40;;;;;;;12.50;6.60;;;;;;;10.24;44.77;97914.23;105115;1271;61820;-27
2022/03/29 06:24:10;;;;;;;13.50;7.00;;;;;;;10.30;44.72;97910.77;105084;1270;75884;-25
2022/03/29 06:26:42;;;;;;;16.00;6.50;;;;;;;10.33;44.39;97906.14;105156;1271;76289;-25
2022/03/29 06:29:12;;;;;;;11.80;6.30;;;;;;;10.36;44.48;97907.04;105159;1270;73452;-25
2022/03/29 06:31:41;;;;;;;10.20;6.10;;;;;;;10.40;44.40;97903.02;105107;1270;61203;-26
2022/03/29 06:34:11;;;;;;;14.60;7.00;;;;;;;10.43;44.36;97898.83;105134;1270;61931;-26
2022/03/29 06:36:41;;;;;;;9.90;5.10;;;;;;;10.46;44.30;97896.42;105135;1270;75554;-25
2022/03/29 06:39:12;;;;;;;15.30;7.50;;;;;;;10.49;44.15;97902.55;105051;1270;76001;-25
2022/03/29 06:41:42;;;;;;;15.70;6.90;;;;;;;10.55;44.29;97904.50;105132;1270;73118;-25
2022/03/29 06:44:11;;;;;;;11.90;6.80;;;;;;;10.60;44.06;97909.44;105144;1270;61402;-25
2022/03/29 06:46:42;;;;;;;11.60;5.30;;;;;;;10.65;44.08;97909.10;105159;1270;62175;-25
2022/03/29 06:49:16;;;;;;;10.50;5.90;;;;;;;10.75;43.88;97913.34;104869;1271;75525;-25
2022/03/29 06:51:47;;;;;;;19.00;6.30;;;;;;;10.88;43.96;97905.55;104938;1270;76042;-25
2022/03/29 06:54:16;;;;;;;12.40;5.70;;;;;;;11.02;43.51;97901.95;105138;1270;74381;-26
2022/03/29 06:56:47;;;;;;;12.30;6.70;;;;;;;11.11;43.49;97905.50;105306;1270;62177;-26
2022/03/29 06:59:16;;;;;;;12.70;6.90;;;;;;;11.18;43.27;97900.13;105307;1270;62052;-25
2022/03/29 07:01:46;;;;;;;11.80;6.30;;;;;;;11.23;43.25;97895.67;105333;1270;75560;-25
2022/03/29 07:04:15;;;;;;;13.40;6.90;;;;;;;11.31;42.90;97897.30;105150;1271;75304;-25
2022/03/29 07:13:46;;;;;;;12.40;6.70;;;;;;;11.61;42.78;97886.01;105038;1270;61154;-26
2022/03/29 07:16:15;;;;;;;14.00;7.50;;;;;;;11.69;42.41;97883.83;105136;1270;74661;-26
2022/03/29 07:18:49;;;;;;;11.60;6.50;;;;;;;11.78;41.88;97877.15;105306;1271;75771;-26
2022/03/29 07:21:18;;;;;;;12.90;6.50;;;;;;;11.83;41.79;97875.80;105153;1270;73561;-26
2022/03/29 07:23:48;;;;;;;15.90;6.70;;;;;;;12.09;41.94;97868.35;104965;1270;61033;-26
2022/03/29 07:26:18;;;;;;;13.00;6.30;;;;;;;12.31;41.05;97869.71;104956;1270;61071;-26
2022/03/29 07:28:47;;;;;;;8.20;5.60;;;;;;;12.50;40.75;97877.62;105120;1270;75303;-27
2022/03/29 07:31:17;;;;;;;12.80;6.10;;;;;;;12.67;40.40;97873.66;105333;1271;74847;-27
2022/03/29 07:33:48;;;;;;;11.90;5.80;;;;;;;12.89;39.98;97864.80;105301;1269;75330;-27
2022/03/29 07:36:17;;;;;;;11.50;6.00;;;;;;;13.09;39.99;97860.02;105278;1270;61064;-27
2022/03/29 07:38:47;;;;;;;14.30;6.10;;;;;;;13.34;39.42;97850.70;105350;1270;61117;-25
2022/03/29 07:41:16;;;;;;;9.30;5.60;;;;;;;13.52;39.18;97853.26;105333;1270;75789;-26
2022/03/29 07:43:47;;;;;;;9.30;6.20;;;;;;;13.52;39.07;97862.11;105304;1270;75708;-26
2022/03/29 07:46:17;;;;;;;8.40;5.40;;;;;;;13.54;39.44;97861.41;104974;1271;73199;-26
2022/03/29 07:48:49;;;;;;;14.80;6.70;;;;;;;13.66;38.84;97860.75;105150;1271;61124;-26
2022/03/29 07:51:39;;;;;;;7.50;4.70;;;;;;;13.86;38.42;97862.73;105176;1270;62769;-26
2022/03/29 07:54:10;;;;;;;8.50;5.50;;;;;;;14.06;38.32;97853.45;105104;1270;75363;-26
2022/03/29 07:56:39;;;;;;;10.90;5.90;;;;;;;14.18;38.42;97852.78;105251;1270;75012;-26
2022/03/29 07:59:09;;;;;;;10.40;5.90;;;;;;;14.43;37.51;97849.82;104965;1270;74293;-28
2022/03/29 08:01:39;;;;;;;14.20;5.80;;;;;;;14.66;37.24;97834.70;104954;1271;61067;-26
2022/03/29 08:04:09;;;;;;;7.60;5.20;;;;;;;14.86;37.32;97827.64;104928;1270;61698;-26
2022/03/29 08:06:39;;;;;;;12.30;6.10;;;;;;;15.07;36.49;97828.46;105114;1270;75619;-27
2022/03/29 08:09:09;;;;;;;11.10;6.20;;;;;;;15.28;36.64;97818.31;105316;1270;76051;-26
2022/03/29 08:11:40;;;;;;;15.60;6.90;;;;;;;15.43;36.09;97814.89;105308;1271;73412;-26
2022/03/29 08:14:12;;;;;;;11.10;6.00;;;;;;;15.43;36.28;97810.49;104993;1269;60936;-26
2022/03/29 08:16:42;;;;;;;15.50;6.70;;;;;;;15.34;36.45;97807.17;105021;1271;61100;-26
2022/03/29 08:19:11;;;;;;;10.10;5.90;;;;;;;15.52;36.44;97808.55;104996;1270;75588;-26
2022/03/29 08:21:50;;;;;;;10.20;6.10;;;;;;;15.80;35.75;97809.50;104964;1270;75588;-26
2022/03/29 08:24:23;;;;;;;16.40;6.60;;;;;;;15.82;36.02;97811.09;105002;1271;74439;-27
2022/03/29 08:26:53;;;;;;;12.70;6.40;;;;;;;15.66;36.18;97814.73;104805;1271;61119;-27
2022/03/29 08:29:29;;;;;;;10.00;6.30;;;;;;;15.37;36.62;97803.34;105131;1270;61113;-27
2022/03/29 08:31:59;;;;;;;10.40;6.00;;;;;;;15.09;37.19;97810.57;105345;1270;74322;-27
2022/03/29 08:34:29;;;;;;;10.20;6.20;;;;;;;14.89;37.55;97805.95;105344;1270;75429;-27
2022/03/29 08:36:58;;;;;;;16.50;6.70;;;;;;;14.76;37.97;97804.70;105374;1270;73395;-27
2022/03/29 08:39:29;;;;;;;12.90;7.00;;;;;;;14.56;38.41;97803.25;105300;1270;61092;-26
2022/03/29 08:42:11;;;;;;;9.10;5.40;;;;;;;14.40;38.83;97816.49;105299;1270;61051;-26
2022/03/29 08:44:41;;;;;;;12.20;6.00;;;;;;;14.28;38.92;97820.48;104986;1271;75373;-25
2022/03/29 08:47:12;;;;;;;94.00;9.40;;;;;;;14.13;39.35;97832.73;105172;1271;76227;-27
2022/03/29 08:49:43;;;;;;;10.30;5.00;;;;;;;13.86;40.16;97848.34;105139;1271;74425;-25
2022/03/29 08:52:12;;;;;;;9.60;5.70;;;;;;;13.53;40.90;97848.90;105157;1271;61186;-28
2022/03/29 08:54:42;;;;;;;74.70;24.20;;;;;;;13.08;42.98;97864.45;105075;1271;61142;-27
2022/03/29 08:57:13;;;;;;;38.30;22.60;;;;;;;12.35;47.42;97865.18;105096;1270;75550;-27
2022/03/29 08:59:43;;;;;;;24.40;12.10;;;;;;;11.24;54.69;97871.05;105152;1270;76011;-28
2022/03/29 09:02:18;;;;;;;23.50;12.20;;;;;;;10.68;60.73;97901.30;105339;1270;74683;-28
2022/03/29 09:05:12;;;;;;;24.50;14.70;;;;;;;9.44;66.28;97903.41;105099;1270;61141;-27
2022/03/29 09:08:04;;;;;;;26.50;15.50;;;;;;;9.11;66.71;97904.55;105172;1271;61032;-27
2022/03/29 09:10:46;;;;;;;;;;;;;;;8.79;67.60;97915.27;105154;1271;74483;-27
2022/03/29 09:13:27;;;;;;;19.30;10.60;;;;;;;8.73;67.80;97921.17;105157;1270;76004;-27
2022/03/29 09:15:58;;;;;;;25.10;15.50;;;;;;;8.59;67.66;97918.67;105122;1271;73496;-27
2022/03/29 09:18:29;;;;;;;30.10;17.90;;;;;;;8.61;68.31;97921.78;105085;1272;61158;-27
2022/03/29 09:21:16;;;;;;;15.80;10.70;;;;;;;8.41;70.37;97917.34;105115;1270;63339;-27
2022/03/29 09:24:14;;;;;;;18.20;10.40;;;;;;;8.79;70.18;97914.99;105036;1271;75809;-27
2022/03/29 09:26:45;;;;;;;57.70;30.10;;;;;;;9.03;68.49;97897.56;105007;1271;76200;-27
2022/03/29 09:29:15;;;;;;;16.90;10.60;;;;;;;8.86;70.31;97895.47;104989;1271;73711;-27
2022/03/29 09:32:08;;;;;;;16.10;8.10;;;;;;;8.74;71.05;97883.44;105130;1271;61083;-26
2022/03/29 09:34:38;;;;;;;20.00;10.70;;;;;;;8.87;71.16;97874.29;105116;1270;61030;-27
2022/03/29 09:37:08;;;;;;;12.10;7.70;;;;;;;8.88;71.86;97870.89;105134;1270;75537;-26
2022/03/29 09:39:39;;;;;;;13.80;7.20;;;;;;;8.97;72.14;97873.86;105027;1269;75666;-26
2022/03/29 09:42:12;;;;;;;12.90;7.30;;;;;;;9.10;71.70;97869.73;104799;1271;74533;-26
2022/03/29 09:44:51;;;;;;;12.50;7.80;;;;;;;9.28;70.29;97871.43;104987;1271;61131;-26
2022/03/29 09:47:22;;;;;;;12.10;6.20;;;;;;;9.46;70.77;97876.91;104902;1271;61202;-26
2022/03/29 09:49:55;;;;;;;15.10;7.30;;;;;;;10.14;68.98;97883.58;104623;1271;75868;-27
2022/03/29 09:52:30;;;;;;;11.90;7.30;;;;;;;10.48;65.59;97883.54;104846;1271;76419;-27
2022/03/29 09:55:09;;;;;;;14.80;8.70;;;;;;;10.36;65.94;97894.98;104784;1270;73457;-27
2022/03/29 09:57:50;;;;;;;14.20;7.80;;;;;;;9.95;67.25;97899.75;105105;1272;61033;-27
2022/03/29 10:00:40;;;;;;;14.40;8.40;;;;;;;9.99;68.02;97899.40;105108;1270;61097;-25
2022/03/29 10:03:11;;;;;;;13.70;7.50;;;;;;;9.95;68.70;97900.63;105127;1270;75332;-25
2022/03/29 10:05:42;;;;;;;15.10;7.60;;;;;;;9.91;68.55;97892.05;105171;1270;75779;-25
2022/03/29 10:11:27;;;;;;;11.30;7.10;;;;;;;9.84;68.24;97874.17;105058;1270;61753;-24
2022/03/29 10:14:00;;;;;;;17.10;8.20;;;;;;;9.84;68.00;97882.27;105120;1270;61035;-24
2022/03/29 10:16:29;;;;;;;11.70;7.20;;;;;;;9.96;67.97;97875.42;105051;1270;74724;-24
2022/03/29 10:19:00;;;;;;;11.90;7.40;;;;;;;10.58;66.59;97881.83;105126;1271;76050;-24
2022/03/29 10:21:30;;;;;;;11.60;6.40;;;;;;;11.04;64.25;97875.17;105141;1270;74449;-24
2022/03/29 10:24:00;;;;;;;15.80;7.20;;;;;;;11.15;63.52;97865.55;104947;1271;61106;-24
2022/03/29 10:26:30;;;;;;;14.20;8.50;;;;;;;11.07;63.44;97855.36;104969;1271;61850;-24
2022/03/29 10:28:59;;;;;;;12.90;8.30;;;;;;;11.05;63.81;97866.00;104943;1271;75412;-24
2022/03/29 10:31:39;;;;;;;14.10;9.20;;;;;;;10.98;63.73;97864.67;105030;1270;76269;-24
2022/03/29 10:34:24;;;;;;;16.60;7.20;;;;;;;10.78;64.32;97849.50;105101;1271;74646;-24
2022/03/29 10:37:09;;;;;;;16.60;8.40;;;;;;;10.86;64.85;97853.56;104991;1270;61168;-24
2022/03/29 10:39:48;;;;;;;12.20;7.40;;;;;;;10.92;64.61;97854.33;105012;1270;61112;-24
2022/03/29 10:42:44;;;;;;;14.40;8.70;;;;;;;10.90;64.27;97848.31;105105;1271;75583;-25
2022/03/29 10:45:22;;;;;;;12.30;7.50;;;;;;;10.79;65.00;97846.93;105131;1270;76143;-25
2022/03/29 10:48:06;;;;;;;16.50;8.10;;;;;;;10.71;64.19;97835.77;104941;1270;74403;-25
2022/03/29 10:50:53;;;;;;;13.50;8.70;;;;;;;10.65;64.23;97832.70;104815;1271;61125;-26
2022/03/29 10:53:28;;;;;;;15.20;9.30;;;;;;;10.72;64.07;97827.55;104931;1270;61081;-26
2022/03/29 10:56:14;;;;;;;14.80;8.70;;;;;;;10.74;64.12;97826.83;105051;1271;73559;-27
2022/03/29 10:59:04;;;;;;;12.70;8.30;;;;;;;10.91;63.54;97825.75;104875;1271;75825;-26
2022/03/29 11:01:35;;;;;;;8.50;6.20;;;;;;;11.25;63.18;97813.11;104865;1270;73451;-26
2022/03/29 11:04:16;;;;;;;14.90;7.50;;;;;;;11.55;61.23;97807.42;105097;1271;61048;-26
2022/03/29 11:07:06;;;;;;;12.60;7.80;;;;;;;11.78;60.06;97798.40;104821;1270;61025;-26
2022/03/29 11:09:36;;;;;;;14.20;6.60;;;;;;;11.89;59.87;97804.85;104470;1270;591095;-26
2022/03/29 11:12:07;;;;;;;12.00;8.20;;;;;;;12.10;58.36;97792.44;104862;1270;73031;-27
2022/03/29 11:14:39;;;;;;;15.40;7.60;;;;;;;12.09;56.75;97781.21;104886;1270;74178;-24
2022/03/29 11:17:17;;;;;;;9.90;6.80;;;;;;;11.99;56.69;97776.55;104819;1270;62759;-30
2022/03/29 11:19:48;;;;;;;14.10;7.00;;;;;;;12.03;56.73;97776.33;105084;1270;61129;-30
2022/03/29 11:22:35;;;;;;;12.30;7.20;;;;;;;12.23;56.58;97770.55;105042;1270;75617;-27
2022/03/29 11:25:09;;;;;;;12.70;7.50;;;;;;;12.31;56.40;97769.27;105024;1270;76038;-28
2022/03/29 11:27:38;;;;;;;10.10;6.60;;;;;;;12.57;56.38;97767.46;104790;1270;72715;-28
2022/03/29 11:30:10;;;;;;;15.10;7.60;;;;;;;12.76;54.82;97764.52;104957;1270;61009;-27
2022/03/29 11:32:41;;;;;;;11.30;7.10;;;;;;;12.81;54.15;97760.19;104840;1270;61179;-27
2022/03/29 11:35:15;;;;;;;12.90;7.70;;;;;;;12.80;54.30;97755.55;104968;1271;75756;-28
2022/03/29 11:37:45;;;;;;;12.90;7.40;;;;;;;12.88;53.27;97758.11;105026;1270;76140;-26
2022/03/29 11:40:19;;;;;;;14.90;8.60;;;;;;;12.83;53.13;97747.80;105122;1270;74410;-28
2022/03/29 11:42:54;;;;;;;13.20;8.20;;;;;;;12.88;53.01;97740.39;105014;1270;61042;-27
2022/03/29 11:45:25;;;;;;;12.30;7.10;;;;;;;13.20;52.79;97739.14;104846;1270;61131;-27
2022/03/29 11:47:59;;;;;;;11.20;7.40;;;;;;;13.37;51.58;97737.72;105133;1270;75734;-27
2022/03/29 11:50:52;;;;;;;7.50;5.50;;;;;;;13.36;51.44;97734.04;105118;1270;76046;-27
2022/03/29 11:53:30;;;;;;;13.30;8.10;;;;;;;13.36;51.40;97723.58;105128;1270;74650;-27
2022/03/29 11:56:01;;;;;;;14.50;8.00;;;;;;;13.41;51.17;97724.01;105114;1270;61134;-27
2022/03/29 11:58:43;;;;;;;10.60;6.70;;;;;;;13.41;50.67;97711.89;105096;1270;61120;-27